Time;durP1;ratioP1;P1;durP2;ratioP2;P2;SDS_P1;SDS_P2;PMS_P1;PMS_P2;Temp;Humidity;BMP_temperature;BMP_pressure;BME280_temperature;BME280_humidity;BME280_pressure;Samples;Min_cycle;Max_cycle;Signal;HPM_P1;HPM_P2
2023/01/03 00:01:43;;;;;;;0.63;0.50;;;10.30;1.00;;;;;;5093467;28;20441;-73
2023/01/03 00:04:11;;;;;;;0.80;0.60;;;10.30;1.00;;;;;;5092697;28;20456;-74
2023/01/03 00:06:43;;;;;;;0.83;0.60;;;10.30;1.00;;;;;;5093297;28;20483;-74
2023/01/03 00:09:12;;;;;;;0.70;0.40;;;10.40;99.90;;;;;;5093373;28;20529;-73
2023/01/03 00:14:29;;;;;;;0.80;0.60;;;10.60;99.90;;;;;;5093212;28;20514;-73
2023/01/03 00:16:57;;;;;;;1.90;0.60;;;10.50;99.90;;;;;;5092843;28;20467;-74
2023/01/03 00:19:26;;;;;;;1.10;0.93;;;10.40;99.90;;;;;;5092848;28;20450;-74
2023/01/03 00:21:53;;;;;;;0.63;0.53;;;10.30;1.00;;;;;;5079655;28;20459;-73
2023/01/03 00:24:20;;;;;;;0.80;0.63;;;10.10;1.00;;;;;;5092560;28;20447;-74
2023/01/03 00:26:47;;;;;;;3.03;2.47;;;10.20;1.00;;;;;;5092769;28;20539;-73
2023/01/03 00:29:14;;;;;;;0.70;0.60;;;10.20;1.00;;;;;;5092630;28;20445;-73
2023/01/03 00:31:43;;;;;;;0.70;0.43;;;10.10;1.00;;;;;;5093104;28;20458;-74
2023/01/03 00:34:10;;;;;;;0.80;0.60;;;10.20;83.90;;;;;;5092532;28;20456;-74
2023/01/03 00:36:38;;;;;;;1.73;0.50;;;10.10;99.90;;;;;;5093209;28;20536;-74
2023/01/03 00:39:05;;;;;;;1.00;0.53;;;10.00;99.90;;;;;;5092378;28;20447;-73
2023/01/03 00:41:32;;;;;;;1.07;0.60;;;10.00;1.00;;;;;;5092925;28;20460;-74
2023/01/03 00:43:59;;;;;;;1.00;0.67;;;10.00;1.00;;;;;;5092182;28;20564;-73
2023/01/03 00:46:26;;;;;;;2.13;1.13;;;9.90;1.00;;;;;;5092158;28;20489;-74
2023/01/03 00:48:54;;;;;;;0.93;0.53;;;9.90;1.00;;;;;;5092739;28;20457;-73
2023/01/03 00:51:22;;;;;;;1.53;0.73;;;10.00;99.90;;;;;;5091972;28;20938;-73
2023/01/03 00:53:50;;;;;;;0.80;0.60;;;10.10;99.90;;;;;;5092024;28;20786;-74
2023/01/03 00:56:19;;;;;;;0.70;0.50;;;10.20;99.90;;;;;;5091791;28;20865;-74
2023/01/03 00:58:46;;;;;;;0.90;0.70;;;10.20;99.90;;;;;;5092546;28;20769;-74
2023/01/03 01:01:15;;;;;;;1.27;0.73;;;10.10;99.90;;;;;;5091932;28;20456;-74
2023/01/03 01:03:45;;;;;;;0.70;0.53;;;10.10;99.90;;;;;;5092085;28;20451;-74
2023/01/03 01:06:15;;;;;;;0.70;0.50;;;10.20;99.90;;;;;;5091703;28;20980;-74
2023/01/03 01:08:43;;;;;;;1.10;0.80;;;10.30;99.90;;;;;;5092667;28;20785;-74
2023/01/03 01:11:10;;;;;;;0.70;0.50;;;10.10;99.90;;;;;;5092138;28;20455;-74
2023/01/03 01:13:38;;;;;;;0.80;0.60;;;9.80;99.90;;;;;;5091912;28;20461;-74
2023/01/03 01:16:07;;;;;;;1.00;0.70;;;9.80;1.00;;;;;;5091570;28;20875;-73
2023/01/03 01:18:34;;;;;;;1.47;0.73;;;9.70;99.90;;;;;;5092142;28;20454;-74
2023/01/03 01:21:05;;;;;;;0.77;0.63;;;9.60;1.00;;;;;;5092514;28;20454;-74
2023/01/03 01:23:34;;;;;;;0.80;0.60;;;9.80;99.90;;;;;;5078467;28;20441;-74
2023/01/03 01:26:02;;;;;;;2.60;0.70;;;9.70;1.00;;;;;;5091843;28;21022;-74
2023/01/03 01:28:29;;;;;;;0.80;0.60;;;9.90;99.90;;;;;;5091479;28;20440;-73
2023/01/03 01:30:58;;;;;;;0.90;0.60;;;10.00;99.90;;;;;;5091699;28;20460;-74
2023/01/03 01:33:25;;;;;;;2.03;0.70;;;9.90;99.90;;;;;;5090898;28;20476;-74
2023/01/03 01:35:52;;;;;;;0.90;0.50;;;10.00;99.90;;;;;;5091635;28;20463;-74
2023/01/03 01:38:19;;;;;;;0.80;0.60;;;10.10;82.90;;;;;;5091303;28;20454;-74
2023/01/03 01:40:47;;;;;;;0.73;0.53;;;9.90;99.90;;;;;;5091835;28;20445;-73
2023/01/03 01:46:11;;;;;;;1.20;0.77;;;9.80;1.00;;;;;;5090857;28;20471;-71
2023/01/03 01:48:38;;;;;;;0.80;0.50;;;9.80;99.90;;;;;;5091538;28;20457;-74
2023/01/03 01:51:07;;;;;;;1.00;0.80;;;9.70;99.90;;;;;;5077917;28;20801;-74
2023/01/03 01:53:36;;;;;;;1.23;0.60;;;9.60;99.90;;;;;;5091122;28;20445;-73
2023/01/03 01:56:09;;;;;;;1.47;0.87;;;9.50;1.00;;;;;;5091053;28;20449;-73
2023/01/03 01:58:37;;;;;;;1.07;0.63;;;9.50;99.90;;;;;;5091545;28;20437;-74
2023/01/03 02:01:07;;;;;;;0.80;0.60;;;9.50;1.00;;;;;;5090639;28;20444;-73
2023/01/03 02:03:34;;;;;;;0.70;0.50;;;9.50;1.00;;;;;;5091257;28;20449;-73
2023/01/03 02:06:03;;;;;;;0.70;0.50;;;9.60;99.90;;;;;;5091132;28;20535;-74
2023/01/03 02:08:29;;;;;;;0.83;0.80;;;9.70;1.00;;;;;;5091070;28;20951;-74
2023/01/03 02:11:18;;;;;;;2.43;0.60;;;9.80;1.00;;;;;;5091362;28;20445;-74
2023/01/03 02:13:52;;;;;;;0.80;0.50;;;9.70;1.00;;;;;;5090575;28;20964;-74
2023/01/03 02:16:29;;;;;;;0.80;0.60;;;9.70;1.00;;;;;;5090464;28;20920;-73
2023/01/03 02:19:10;;;;;;;2.13;0.73;;;9.70;1.00;;;;;;5086556;28;20880;-74
2023/01/03 02:22:20;;;;;;;0.90;0.60;;;9.70;99.90;;;;;;5090502;28;20950;-73
2023/01/03 02:25:08;;;;;;;0.80;0.70;;;9.70;99.90;;;;;;5091121;28;20763;-74
2023/01/03 02:28:09;;;;;;;0.83;0.60;;;9.50;99.90;;;;;;5090789;28;20945;-74
2023/01/03 02:30:40;;;;;;;1.53;1.10;;;9.20;1.00;;;;;;5090901;28;20448;-73
2023/01/03 02:33:15;;;;;;;0.80;0.53;;;9.00;1.00;;;;;;5089725;28;20920;-73
2023/01/03 02:35:52;;;;;;;0.80;0.50;;;8.90;99.90;;;;;;5090587;28;20440;-74
2023/01/03 02:38:26;;;;;;;1.10;0.67;;;8.90;99.90;;;;;;5090315;28;20436;-74
2023/01/03 02:40:59;;;;;;;3.10;0.80;;;8.80;1.00;;;;;;5090877;28;20448;-74
2023/01/03 02:43:31;;;;;;;1.10;0.73;;;8.90;99.90;;;;;;5089405;28;20983;-74
2023/01/03 02:46:07;;;;;;;1.80;0.70;;;8.90;99.90;;;;;;5090402;28;20444;-74
2023/01/03 02:48:41;;;;;;;1.13;0.60;;;9.00;99.90;;;;;;5090814;28;20461;-73
2023/01/03 02:51:12;;;;;;;0.70;0.50;;;9.00;42.20;;;;;;5077948;28;20441;-73
2023/01/03 02:53:43;;;;;;;0.90;0.60;;;8.70;99.90;;;;;;5090458;28;20437;-74
2023/01/03 02:56:12;;;;;;;0.90;0.77;;;8.70;99.90;;;;;;5090469;28;20454;-73
2023/01/03 02:58:43;;;;;;;1.27;0.80;;;8.60;99.90;;;;;;5090996;28;20462;-73
2023/01/03 03:01:14;;;;;;;1.53;0.77;;;8.60;17.60;;;;;;5089663;28;20451;-73
2023/01/03 03:03:40;;;;;;;0.73;0.50;;;8.70;1.00;;;;;;5089961;28;20454;-74
2023/01/03 03:06:14;;;;;;;0.80;0.47;;;8.50;1.00;;;;;;5089726;28;20562;-73
2023/01/03 03:08:43;;;;;;;0.80;0.70;;;8.40;99.90;;;;;;5090596;28;20545;-73
2023/01/03 03:14:00;;;;;;;1.20;0.67;;;8.40;99.90;;;;;;5077762;28;20463;-73
2023/01/03 03:16:47;;;;;;;0.70;0.50;;;8.30;99.90;;;;;;5090116;28;20476;-73
2023/01/03 03:24:51;;;;;;;2.00;0.73;;;8.20;99.90;;;;;;5090055;28;20527;-74
2023/01/03 03:30:11;;;;;;;0.80;0.53;;;8.10;99.90;;;;;;5089740;28;20419;-73
2023/01/03 03:32:43;;;;;;;0.90;0.60;;;8.20;99.90;;;;;;5089733;28;20460;-73
2023/01/03 03:35:15;;;;;;;0.80;0.60;;;8.10;99.90;;;;;;5090019;28;20454;-74
2023/01/03 03:37:44;;;;;;;1.57;1.03;;;8.10;99.90;;;;;;5090451;28;20436;-74
2023/01/03 03:45:55;;;;;;;0.80;0.57;;;8.00;99.90;;;;;;5089970;28;20469;-73
2023/01/03 03:48:29;;;;;;;0.70;0.50;;;7.90;99.90;;;;;;5089391;28;21239;-74
2023/01/03 03:51:03;;;;;;;1.27;0.70;;;7.80;99.90;;;;;;5091479;28;20512;-73
2023/01/03 03:53:34;;;;;;;1.10;0.90;;;7.60;1.00;;;;;;5093849;28;20439;-73
2023/01/03 03:56:06;;;;;;;2.10;0.90;;;7.50;1.00;;;;;;5094069;28;20448;-73
2023/01/03 03:58:38;;;;;;;1.20;0.53;;;7.70;1.00;;;;;;5093521;28;20438;-73
2023/01/03 04:01:06;;;;;;;1.20;0.60;;;7.70;1.00;;;;;;5093011;28;20444;-73
2023/01/03 04:03:35;;;;;;;1.60;0.90;;;7.80;99.90;;;;;;5092818;28;20970;-73
2023/01/03 04:06:06;;;;;;;0.93;0.67;;;7.80;1.00;;;;;;5093285;28;20444;-71
2023/01/03 04:08:33;;;;;;;1.77;0.60;;;7.70;99.90;;;;;;5093189;28;20468;-73
2023/01/03 04:11:05;;;;;;;1.17;0.80;;;7.80;99.90;;;;;;5093742;28;20446;-73
2023/01/03 04:13:32;;;;;;;1.30;1.00;;;7.90;99.90;;;;;;5093332;28;20952;-73
2023/01/03 04:15:59;;;;;;;0.80;0.60;;;7.60;99.90;;;;;;5093475;28;20459;-74
2023/01/03 04:18:25;;;;;;;1.53;0.87;;;7.70;1.00;;;;;;5092913;28;20483;-73
2023/01/03 04:20:54;;;;;;;2.17;0.80;;;7.60;1.00;;;;;;5092970;28;20459;-73
2023/01/03 04:23:21;;;;;;;0.80;0.60;;;7.70;1.00;;;;;;5092085;28;20457;-73
2023/01/03 04:25:48;;;;;;;0.63;0.40;;;7.50;99.90;;;;;;5093160;28;20955;-73
2023/01/03 04:28:15;;;;;;;1.03;0.60;;;7.40;1.00;;;;;;5092601;28;20484;-73
2023/01/03 04:30:42;;;;;;;1.07;0.70;;;7.30;1.00;;;;;;5092853;28;20513;-73
2023/01/03 04:33:09;;;;;;;1.63;0.73;;;7.50;1.00;;;;;;5091907;28;20923;-73
2023/01/03 04:35:36;;;;;;;0.90;0.60;;;7.40;1.00;;;;;;5092760;28;20454;-73
2023/01/03 04:38:05;;;;;;;1.00;0.60;;;7.30;1.00;;;;;;5092441;28;20455;-72
2023/01/03 04:40:33;;;;;;;1.07;0.70;;;7.10;1.00;;;;;;5092749;28;20452;-72
2023/01/03 04:45:44;;;;;;;0.87;0.67;;;7.20;1.00;;;;;;5092749;28;20416;-73
2023/01/03 04:48:11;;;;;;;1.10;0.50;;;7.10;1.00;;;;;;5092020;28;20480;-73
2023/01/03 04:50:38;;;;;;;3.03;0.70;;;6.80;1.00;;;;;;5092917;28;20447;-74
2023/01/03 04:53:06;;;;;;;0.90;0.80;;;6.80;1.00;;;;;;5091934;28;20439;-73
2023/01/03 04:55:33;;;;;;;2.00;0.60;;;6.70;1.00;;;;;;5092681;28;20531;-73
2023/01/03 04:58:01;;;;;;;1.00;0.60;;;6.90;1.00;;;;;;5092874;28;20459;-73
2023/01/03 05:00:28;;;;;;;1.03;0.60;;;6.80;1.00;;;;;;5092373;28;20538;-74
2023/01/03 05:02:55;;;;;;;0.80;0.60;;;6.80;1.00;;;;;;5092128;28;20800;-73
2023/01/03 05:05:22;;;;;;;1.00;0.70;;;6.90;1.00;;;;;;5091871;28;21160;-73
2023/01/03 05:07:48;;;;;;;0.80;0.50;;;6.90;1.00;;;;;;5092485;28;20498;-73
2023/01/03 05:10:17;;;;;;;4.57;1.47;;;6.80;1.00;;;;;;5091902;28;20448;-73
2023/01/03 05:12:58;;;;;;;0.80;0.60;;;7.00;1.00;;;;;;5091749;28;20452;-73
2023/01/03 05:15:25;;;;;;;1.00;0.70;;;6.80;1.00;;;;;;5091420;28;20451;-73
2023/01/03 05:17:52;;;;;;;0.90;0.50;;;6.90;1.00;;;;;;5092179;28;20574;-73
2023/01/03 05:25:50;;;;;;;1.73;1.03;;;6.60;1.00;;;;;;5092087;28;20428;-73
2023/01/03 05:28:19;;;;;;;1.40;0.73;;;6.50;1.00;;;;;;5091077;28;20565;-73
2023/01/03 05:30:46;;;;;;;0.90;0.57;;;6.40;1.00;;;;;;5091917;28;20449;-73
2023/01/03 05:33:13;;;;;;;0.60;0.40;;;6.30;1.00;;;;;;5091290;28;20450;-72
2023/01/03 05:35:40;;;;;;;1.57;0.80;;;6.30;1.00;;;;;;5091806;28;21003;-73
2023/01/03 05:38:07;;;;;;;1.20;0.90;;;6.30;1.00;;;;;;5091591;28;20452;-73
2023/01/03 05:40:34;;;;;;;0.73;0.60;;;6.30;1.00;;;;;;5091515;28;20455;-73
2023/01/03 05:43:02;;;;;;;0.90;0.63;;;6.20;1.00;;;;;;5091376;28;20498;-74
2023/01/03 05:45:29;;;;;;;1.17;0.83;;;6.20;1.00;;;;;;5091786;28;20451;-73
2023/01/03 05:47:57;;;;;;;0.60;0.50;;;6.20;1.00;;;;;;5091730;28;20506;-73
2023/01/03 05:50:24;;;;;;;3.23;1.00;;;6.10;1.00;;;;;;5091117;28;20447;-73
2023/01/03 05:52:51;;;;;;;1.10;0.80;;;6.20;1.00;;;;;;5091295;28;20458;-73
2023/01/03 05:55:18;;;;;;;1.60;0.80;;;6.30;1.00;;;;;;5090715;28;20455;-73
2023/01/03 05:57:46;;;;;;;0.90;0.70;;;6.50;1.00;;;;;;5091273;28;20926;-73
2023/01/03 06:00:15;;;;;;;1.37;0.90;;;6.70;1.00;;;;;;5090922;28;20463;-73
2023/01/03 06:02:42;;;;;;;0.80;0.50;;;6.80;1.00;;;;;;5090989;28;20952;-74
2023/01/03 06:05:10;;;;;;;0.70;0.50;;;6.50;1.00;;;;;;5091188;28;20466;-73
2023/01/03 06:07:37;;;;;;;0.73;0.63;;;6.60;1.00;;;;;;5092089;28;20646;-73
2023/01/03 06:10:04;;;;;;;0.90;0.60;;;6.60;1.00;;;;;;5091064;28;20804;-73
2023/01/03 06:12:31;;;;;;;1.13;0.67;;;6.50;1.00;;;;;;5091221;28;20982;-73
2023/01/03 06:14:58;;;;;;;1.00;0.80;;;6.40;1.00;;;;;;5091363;28;20455;-73
2023/01/03 06:20:10;;;;;;;1.00;0.60;;;6.20;1.00;;;;;;5090802;28;20442;-73
2023/01/03 06:22:37;;;;;;;0.93;0.60;;;6.30;1.00;;;;;;5091225;28;20455;-74
2023/01/03 06:25:04;;;;;;;1.30;1.00;;;6.20;1.00;;;;;;5090882;28;20448;-73
2023/01/03 06:27:31;;;;;;;2.30;1.03;;;6.20;1.00;;;;;;5091672;28;20490;-74
2023/01/03 06:29:58;;;;;;;2.40;1.00;;;6.30;1.00;;;;;;5078054;28;20930;-74
2023/01/03 06:32:26;;;;;;;1.07;0.77;;;6.20;1.00;;;;;;5090054;28;20928;-73
2023/01/03 06:34:53;;;;;;;1.77;1.03;;;6.00;1.00;;;;;;5091439;28;20481;-74
2023/01/03 06:37:20;;;;;;;4.43;0.67;;;6.00;1.00;;;;;;5090835;28;20474;-74
2023/01/03 06:39:47;;;;;;;1.10;0.90;;;5.90;1.00;;;;;;5091336;28;20459;-73
2023/01/03 06:53:13;;;;;;;0.80;0.60;;;5.90;5.90;;;;;;5090161;28;20427;-73
2023/01/03 06:55:41;;;;;;;1.37;0.77;;;5.90;17.50;;;;;;5091061;28;20442;-73
2023/01/03 06:58:08;;;;;;;1.10;0.90;;;5.90;31.50;;;;;;5090645;28;20467;-73
2023/01/03 07:00:37;;;;;;;0.93;0.70;;;6.20;1.00;;;;;;5090898;28;20452;-73
2023/01/03 07:03:06;;;;;;;1.33;0.80;;;6.20;1.00;;;;;;5090170;28;20447;-73
2023/01/03 07:05:32;;;;;;;1.30;1.10;;;6.00;1.00;;;;;;5090944;28;20454;-73
2023/01/03 07:07:59;;;;;;;1.30;1.20;;;6.00;1.00;;;;;;5091256;28;20483;-73
2023/01/03 07:10:26;;;;;;;0.87;0.73;;;6.00;1.00;;;;;;5090097;28;20445;-73
2023/01/03 07:15:42;;;;;;;2.90;1.03;;;5.90;9.10;;;;;;5079125;28;20412;-73
2023/01/03 07:18:10;;;;;;;2.27;1.40;;;5.90;10.60;;;;;;5090393;28;20442;-73
2023/01/03 07:20:41;;;;;;;1.90;1.13;;;5.90;1.00;;;;;;5090966;28;20452;-73
2023/01/03 07:23:08;;;;;;;1.23;0.80;;;5.80;13.20;;;;;;5089575;28;20462;-73
2023/01/03 07:25:39;;;;;;;2.67;1.10;;;5.80;8.40;;;;;;5091778;28;20446;-73
2023/01/03 07:28:07;;;;;;;3.10;1.23;;;5.80;1.00;;;;;;5094128;28;20461;-72
2023/01/03 07:30:37;;;;;;;1.23;0.90;;;5.70;6.70;;;;;;5094694;28;20443;-73
2023/01/03 07:33:04;;;;;;;4.53;1.50;;;6.00;1.00;;;;;;5093564;28;20499;-72
2023/01/03 07:35:33;;;;;;;2.90;0.97;;;6.10;1.00;;;;;;5094673;28;20452;-73
2023/01/03 07:38:00;;;;;;;1.80;1.27;;;6.10;1.00;;;;;;5094625;28;20495;-76
2023/01/03 07:40:27;;;;;;;1.23;0.97;;;6.00;1.00;;;;;;5094611;28;20452;-74
2023/01/03 07:45:40;;;;;;;3.57;1.23;;;5.90;1.00;;;;;;5094260;28;20841;-73
2023/01/03 07:48:07;;;;;;;3.03;1.33;;;6.00;84.00;;;;;;5093580;28;20564;-73
2023/01/03 07:50:36;;;;;;;2.13;0.83;;;5.90;28.80;;;;;;5094260;28;20453;-75
2023/01/03 07:53:03;;;;;;;1.30;0.80;;;5.80;1.00;;;;;;5093079;28;20963;-74
2023/01/03 07:55:29;;;;;;;3.43;1.20;;;5.90;51.50;;;;;;5094526;28;20450;-73
2023/01/03 07:57:56;;;;;;;5.50;1.13;;;5.60;1.00;;;;;;5094514;28;20460;-73
2023/01/03 08:00:23;;;;;;;2.77;1.50;;;5.70;28.20;;;;;;5093345;28;21007;-73
2023/01/03 08:02:53;;;;;;;1.83;1.33;;;5.70;1.20;;;;;;5093247;28;20441;-73
2023/01/03 08:05:20;;;;;;;1.97;1.43;;;5.70;27.20;;;;;;5093288;28;20452;-73
2023/01/03 08:07:49;;;;;;;1.50;1.03;;;5.60;6.40;;;;;;5094062;28;20480;-73
2023/01/03 08:13:18;;;;;;;1.37;1.10;;;5.60;25.60;;;;;;5093418;28;20443;-74
2023/01/03 08:15:45;;;;;;;1.17;0.80;;;5.60;44.90;;;;;;5093681;28;20451;-73
2023/01/03 08:18:12;;;;;;;1.20;0.97;;;5.60;32.60;;;;;;5092841;28;20458;-73
2023/01/03 08:20:39;;;;;;;3.07;1.17;;;5.70;34.90;;;;;;5093991;28;20485;-74
2023/01/03 08:23:08;;;;;;;2.17;0.90;;;5.80;54.10;;;;;;5092469;28;20452;-73
2023/01/03 08:25:34;;;;;;;3.03;1.23;;;5.90;23.80;;;;;;5093713;28;20444;-74
2023/01/03 08:28:02;;;;;;;1.60;0.90;;;6.00;13.40;;;;;;5093590;28;20494;-74
2023/01/03 08:30:30;;;;;;;1.70;1.13;;;6.00;19.50;;;;;;5093591;28;20962;-74
2023/01/03 08:33:01;;;;;;;4.20;1.23;;;6.10;5.90;;;;;;5093327;28;20485;-74
2023/01/03 08:35:30;;;;;;;3.20;1.60;;;6.40;1.00;;;;;;5093784;28;20452;-73
2023/01/03 08:38:00;;;;;;;2.70;1.47;;;6.30;1.00;;;;;;5093239;28;20450;-74
2023/01/03 08:40:29;;;;;;;1.70;1.03;;;6.20;1.00;;;;;;5093866;28;20818;-73
2023/01/03 08:42:56;;;;;;;1.27;0.87;;;6.30;1.00;;;;;;5092863;28;20478;-74
2023/01/03 08:45:23;;;;;;;1.93;1.30;;;6.50;1.00;;;;;;5092465;28;20458;-73
2023/01/03 08:47:51;;;;;;;3.73;1.70;;;6.50;1.00;;;;;;5079898;28;20463;-74
2023/01/03 08:50:18;;;;;;;3.40;1.90;;;6.50;1.00;;;;;;5092726;28;20617;-73
2023/01/03 08:52:44;;;;;;;1.47;1.00;;;6.50;1.00;;;;;;5092853;28;20458;-74
2023/01/03 08:55:11;;;;;;;1.37;0.90;;;6.60;1.00;;;;;;5092467;28;20451;-73
2023/01/03 08:57:40;;;;;;;2.13;0.97;;;6.60;1.00;;;;;;5092758;28;20470;-74
2023/01/03 09:00:08;;;;;;;1.93;1.50;;;6.70;1.00;;;;;;5092159;28;20448;-73
2023/01/03 09:02:35;;;;;;;3.17;1.23;;;6.70;1.00;;;;;;5092522;28;20470;-73
2023/01/03 09:05:02;;;;;;;1.90;1.57;;;6.70;1.00;;;;;;5092628;28;20462;-72
2023/01/03 09:07:29;;;;;;;1.23;1.00;;;6.80;1.00;;;;;;5093144;28;20563;-74
2023/01/03 09:09:56;;;;;;;1.80;1.23;;;6.80;1.00;;;;;;5092368;28;20997;-73
2023/01/03 09:12:23;;;;;;;1.80;1.20;;;6.80;1.00;;;;;;5091929;28;20829;-73
2023/01/03 09:14:51;;;;;;;2.87;1.43;;;6.80;1.00;;;;;;5092699;28;20447;-73
2023/01/03 09:17:17;;;;;;;1.97;1.37;;;6.90;1.00;;;;;;5092100;28;20463;-73
2023/01/03 09:19:44;;;;;;;1.00;0.70;;;7.00;1.00;;;;;;5092223;28;20461;-73
2023/01/03 09:22:11;;;;;;;1.60;1.50;;;7.30;1.00;;;;;;5091777;28;20451;-73
2023/01/03 09:24:38;;;;;;;1.53;1.43;;;7.20;1.00;;;;;;5092409;28;20967;-73
2023/01/03 09:27:05;;;;;;;2.47;1.40;;;7.30;1.00;;;;;;5092064;28;20440;-73
2023/01/03 09:29:31;;;;;;;3.43;1.67;;;7.30;1.00;;;;;;5092256;28;20490;-73
2023/01/03 09:32:02;;;;;;;2.03;1.83;;;7.30;1.00;;;;;;5092125;28;20457;-74
2023/01/03 09:34:29;;;;;;;2.00;1.37;;;7.30;1.00;;;;;;5092959;28;20804;-74
2023/01/03 09:36:55;;;;;;;1.77;0.97;;;7.40;1.00;;;;;;5092416;28;20448;-74
2023/01/03 09:39:22;;;;;;;3.30;2.10;;;7.60;1.00;;;;;;5091773;28;20475;-73
2023/01/03 09:43:11;;;;;;;2.07;1.37;;;7.60;1.00;;;;;;5091607;28;20449;-74
2023/01/03 09:44:38;;;;;;;3.40;1.83;;;7.70;1.00;;;;;;5071936;28;20528;-74
2023/01/03 09:47:06;;;;;;;2.20;1.60;;;7.70;99.90;;;;;;5071215;28;20452;-73
2023/01/03 09:49:37;;;;;;;3.23;1.97;;;7.70;99.90;;;;;;5071160;28;20486;-74
2023/01/03 10:03:43;;;;;;;6.10;2.80;;;7.90;99.90;;;;;;5070735;28;20424;-73
2023/01/03 10:06:20;;;;;;;3.57;1.70;;;8.00;99.90;;;;;;5071305;28;20459;-73
2023/01/03 10:09:06;;;;;;;2.03;1.83;;;8.20;99.90;;;;;;5071544;28;20482;-73
2023/01/03 10:11:43;;;;;;;2.97;2.00;;;8.20;99.90;;;;;;5071173;28;20785;-74
2023/01/03 10:14:21;;;;;;;2.90;2.10;;;8.20;99.90;;;;;;5070989;28;20460;-73
2023/01/03 10:16:59;;;;;;;2.17;1.50;;;8.30;99.40;;;;;;5071432;28;20448;-73
2023/01/03 10:19:53;;;;;;;2.50;1.53;;;8.40;89.60;;;;;;5070797;28;20892;-73
2023/01/03 10:22:22;;;;;;;2.07;1.60;;;8.40;99.00;;;;;;5070537;28;20450;-73
2023/01/03 10:24:55;;;;;;;2.53;1.43;;;8.50;99.90;;;;;;5070973;28;20963;-73
2023/01/03 10:27:26;;;;;;;3.80;1.80;;;8.40;99.90;;;;;;5070916;28;20453;-73
2023/01/03 10:29:59;;;;;;;4.80;2.00;;;8.40;99.90;;;;;;5071217;28;20477;-73
2023/01/03 10:32:44;;;;;;;7.00;2.03;;;8.40;99.90;;;;;;5070289;28;20449;-73
2023/01/03 10:35:22;;;;;;;3.53;2.40;;;8.50;53.50;;;;;;5070982;28;20448;-73
2023/01/03 10:37:52;;;;;;;4.03;1.93;;;8.40;99.90;;;;;;5071226;28;20506;-73
2023/01/03 10:40:19;;;;;;;4.20;2.30;;;8.50;99.90;;;;;;5070733;28;20453;-73
2023/01/03 10:42:48;;;;;;;2.87;1.97;;;8.50;99.90;;;;;;5075239;28;20472;-73
2023/01/03 10:45:16;;;;;;;3.13;1.77;;;8.50;23.30;;;;;;5090857;28;20865;-73
2023/01/03 10:47:44;;;;;;;9.03;3.47;;;8.70;1.00;;;;;;5091173;28;20800;-73
2023/01/03 10:50:22;;;;;;;3.83;1.87;;;8.80;1.00;;;;;;5090760;28;20484;-74
2023/01/03 10:52:57;;;;;;;3.30;1.70;;;8.90;99.90;;;;;;5078497;28;20448;-73
2023/01/03 10:55:25;;;;;;;3.20;2.10;;;9.00;1.00;;;;;;5090739;28;20451;-74
2023/01/03 10:58:00;;;;;;;2.07;1.60;;;9.10;1.00;;;;;;5090945;28;20885;-74
2023/01/03 11:00:30;;;;;;;2.33;1.80;;;9.10;99.90;;;;;;5093786;28;20448;-73
2023/01/03 11:03:10;;;;;;;3.30;2.53;;;9.20;99.90;;;;;;5095261;28;20464;-74
2023/01/03 11:05:39;;;;;;;5.23;2.87;;;9.20;99.90;;;;;;5095231;28;20444;-74
2023/01/03 11:08:17;;;;;;;4.03;2.13;;;9.20;1.00;;;;;;5094759;28;20851;-73
2023/01/03 11:10:54;;;;;;;3.23;2.17;;;9.30;1.00;;;;;;5083048;28;20444;-74
2023/01/03 11:13:27;;;;;;;4.27;1.87;;;9.40;99.90;;;;;;5094702;28;20456;-74
2023/01/03 11:15:55;;;;;;;3.03;2.30;;;9.50;99.90;;;;;;5095364;28;20445;-74
2023/01/03 11:18:22;;;;;;;2.67;2.37;;;9.60;99.90;;;;;;5094303;28;20690;-74
2023/01/03 11:20:59;;;;;;;3.50;1.50;;;9.60;1.00;;;;;;5094616;28;20447;-74
2023/01/03 11:24:03;;;;;;;3.10;1.93;;;9.70;99.90;;;;;;5094553;28;20440;-74
2023/01/03 11:26:45;;;;;;;4.50;1.87;;;9.80;1.00;;;;;;5095300;28;20436;-74
2023/01/03 11:29:32;;;;;;;4.60;1.93;;;9.90;1.00;;;;;;5093956;28;20472;-73
2023/01/03 11:32:11;;;;;;;2.93;1.80;;;9.90;99.90;;;;;;5094303;28;20930;-74
2023/01/03 11:34:57;;;;;;;2.17;1.10;;;9.90;99.90;;;;;;5094889;28;20441;-73
2023/01/03 11:37:33;;;;;;;2.20;1.80;;;10.00;1.00;;;;;;5094344;28;20450;-75
2023/01/03 11:40:12;;;;;;;3.63;1.40;;;10.00;1.00;;;;;;5094920;28;20798;-74
2023/01/03 11:42:52;;;;;;;1.37;1.00;;;10.20;99.90;;;;;;5094028;28;20456;-74
2023/01/03 11:45:44;;;;;;;1.60;1.10;;;10.30;99.90;;;;;;5093878;28;20444;-74
2023/01/03 11:48:37;;;;;;;2.00;0.73;;;10.30;99.90;;;;;;5093989;28;20436;-74
2023/01/03 11:51:14;;;;;;;1.53;0.97;;;10.40;99.90;;;;;;5084680;28;20468;-73
2023/01/03 11:53:55;;;;;;;1.83;0.80;;;10.40;99.90;;;;;;5094594;28;20442;-74
2023/01/03 11:56:28;;;;;;;1.20;0.70;;;10.40;66.60;;;;;;5093716;28;20540;-74
2023/01/03 11:59:17;;;;;;;0.90;0.63;;;10.50;1.00;;;;;;5094301;28;20446;-74
2023/01/03 12:02:16;;;;;;;0.73;0.63;;;10.50;1.00;;;;;;5093744;28;20443;-74
2023/01/03 12:04:54;;;;;;;0.80;0.70;;;10.70;1.00;;;;;;5053500;28;20458;-74
2023/01/03 12:07:31;;;;;;;1.20;0.60;;;10.60;1.00;;;;;;5080551;28;20451;-74
2023/01/03 12:10:04;;;;;;;1.00;0.53;;;10.60;1.00;;;;;;5094112;28;20468;-75
2023/01/03 12:13:00;;;;;;;1.03;0.60;;;10.60;1.00;;;;;;5093184;28;20455;-74
2023/01/03 12:15:38;;;;;;;4.23;0.80;;;10.80;1.00;;;;;;5094383;28;20463;-74
2023/01/03 12:18:13;;;;;;;0.70;0.50;;;10.80;1.00;;;;;;5093247;28;20454;-74
2023/01/03 12:20:45;;;;;;;1.40;0.77;;;10.80;99.90;;;;;;5093696;28;20459;-74
2023/01/03 12:23:20;;;;;;;2.30;0.80;;;10.80;99.90;;;;;;5093049;28;20439;-73
2023/01/03 12:25:53;;;;;;;0.90;0.70;;;10.70;99.90;;;;;;5093940;28;20450;-74
2023/01/03 12:28:26;;;;;;;1.00;0.77;;;10.70;99.90;;;;;;5079828;28;20448;-74
2023/01/03 12:30:57;;;;;;;0.80;0.53;;;10.70;99.90;;;;;;5093195;28;20482;-74
2023/01/03 12:33:30;;;;;;;1.73;0.60;;;10.80;99.90;;;;;;5092971;28;20440;-74
2023/01/03 12:36:01;;;;;;;1.20;0.70;;;10.80;99.90;;;;;;5093816;28;20967;-74
2023/01/03 12:38:32;;;;;;;1.90;0.50;;;10.90;99.90;;;;;;5093760;28;20447;-74
2023/01/03 12:41:10;;;;;;;0.70;0.53;;;11.00;99.90;;;;;;5093334;28;20449;-77
2023/01/03 12:43:44;;;;;;;1.53;0.87;;;11.10;99.90;;;;;;5093154;28;21082;-74
2023/01/03 12:46:17;;;;;;;0.73;0.53;;;11.00;99.90;;;;;;5080074;28;20531;-74
2023/01/03 12:48:53;;;;;;;0.80;0.50;;;11.00;99.90;;;;;;5092891;28;20443;-74
2023/01/03 12:51:23;;;;;;;1.27;1.17;;;11.10;99.90;;;;;;5092500;28;20447;-74
2023/01/03 12:54:00;;;;;;;0.80;0.47;;;11.10;99.90;;;;;;5092899;28;20559;-74
2023/01/03 12:56:53;;;;;;;0.90;0.53;;;11.00;99.90;;;;;;5093590;28;20440;-74
2023/01/03 12:59:39;;;;;;;0.60;0.40;;;10.90;99.90;;;;;;5081481;28;20464;-74
2023/01/03 13:02:20;;;;;;;1.27;0.77;;;11.00;99.90;;;;;;5092181;28;20439;-73
2023/01/03 13:04:49;;;;;;;1.23;0.70;;;11.10;99.90;;;;;;5093227;28;20444;-75
2023/01/03 13:07:22;;;;;;;0.70;0.50;;;11.10;99.90;;;;;;5079362;28;20516;-74
2023/01/03 13:09:55;;;;;;;2.30;0.70;;;11.10;99.90;;;;;;5092543;28;20468;-75
2023/01/03 13:12:26;;;;;;;0.90;0.60;;;11.20;99.90;;;;;;5091817;28;20456;-74
2023/01/03 13:14:54;;;;;;;0.97;0.67;;;11.20;99.90;;;;;;5092778;28;20452;-75
2023/01/03 13:17:24;;;;;;;0.90;0.67;;;11.30;99.90;;;;;;5092126;28;20452;-74
2023/01/03 13:19:57;;;;;;;0.70;0.50;;;11.40;99.90;;;;;;5092651;28;20510;-74
2023/01/03 13:22:50;;;;;;;0.97;0.50;;;11.40;99.90;;;;;;5091596;28;20462;-75
2023/01/03 13:25:38;;;;;;;0.70;0.47;;;11.40;99.90;;;;;;5091828;28;20989;-74
2023/01/03 13:28:23;;;;;;;0.80;0.50;;;11.50;99.90;;;;;;5091533;28;20448;-74
2023/01/03 13:31:10;;;;;;;0.80;0.60;;;11.50;99.90;;;;;;5091249;28;20483;-74
2023/01/03 13:33:53;;;;;;;1.00;0.83;;;11.50;99.90;;;;;;5092320;28;20801;-74
2023/01/03 13:36:21;;;;;;;0.70;0.57;;;11.60;99.90;;;;;;5089000;28;20463;-75
2023/01/03 13:38:48;;;;;;;1.07;0.60;;;11.70;99.90;;;;;;5090179;28;20813;-76
2023/01/03 13:41:31;;;;;;;1.40;0.80;;;11.90;99.90;;;;;;5089995;28;20465;-73
2023/01/03 13:44:09;;;;;;;0.70;0.50;;;11.90;99.90;;;;;;5090340;28;20484;-74
2023/01/03 13:46:41;;;;;;;4.30;2.57;;;12.00;99.90;;;;;;5091622;28;20449;-74
2023/01/03 13:49:14;;;;;;;1.57;1.30;;;12.10;99.90;;;;;;5090904;28;20923;-75
2023/01/03 13:51:50;;;;;;;2.40;1.30;;;12.20;99.90;;;;;;5091301;28;20448;-74
2023/01/03 13:54:42;;;;;;;1.20;0.70;;;11.90;99.90;;;;;;5090123;28;20974;-74
2023/01/03 13:57:29;;;;;;;3.00;0.80;;;11.80;99.90;;;;;;5077310;28;20475;-75
2023/01/03 13:59:59;;;;;;;2.70;0.77;;;11.80;99.90;;;;;;5088209;28;20954;-74
2023/01/03 14:03:03;;;;;;;1.30;1.17;;;11.60;99.90;;;;;;5077012;28;20449;-74
2023/01/03 14:06:06;;;;;;;2.60;1.30;;;11.50;99.90;;;;;;5091224;28;20440;-74
2023/01/03 14:08:55;;;;;;;2.00;0.97;;;11.40;99.90;;;;;;5091162;28;20432;-74
2023/01/03 14:11:35;;;;;;;1.23;1.00;;;11.40;99.90;;;;;;5046045;28;20718;-74
2023/01/03 14:14:06;;;;;;;1.87;0.90;;;11.50;99.90;;;;;;5079510;28;20925;-72
2023/01/03 14:16:45;;;;;;;0.90;0.63;;;11.50;99.90;;;;;;5090224;28;20823;-76
2023/01/03 14:19:21;;;;;;;0.87;0.70;;;11.90;99.90;;;;;;5090330;28;20460;-75
2023/01/03 14:21:52;;;;;;;1.67;0.60;;;12.20;99.90;;;;;;5089289;28;20487;-75
2023/01/03 14:24:24;;;;;;;1.10;0.90;;;12.40;99.90;;;;;;5090753;28;20445;-75
2023/01/03 14:26:51;;;;;;;1.53;0.57;;;12.40;99.90;;;;;;5077521;28;20471;-75
2023/01/03 14:29:20;;;;;;;1.10;0.80;;;12.50;99.90;;;;;;5089087;28;20456;-75